sensor_id;sensor_type;location;lat;lon;timestamp;temperature;humidity
22442;DHT22;11388;54.456;9.752;2023-04-24T00:00:35;13.80;99.90
22442;DHT22;11388;54.456;9.752;2023-04-24T00:03:01;13.80;99.90
22442;DHT22;11388;54.456;9.752;2023-04-24T00:05:28;13.90;99.90
22442;DHT22;11388;54.456;9.752;2023-04-24T00:07:54;13.90;99.90
22442;DHT22;11388;54.456;9.752;2023-04-24T00:10:20;13.90;99.90
22442;DHT22;11388;54.456;9.752;2023-04-24T00:12:46;13.90;99.90
22442;DHT22;11388;54.456;9.752;2023-04-24T00:15:12;14.00;99.90
22442;DHT22;11388;54.456;9.752;2023-04-24T00:17:38;14.00;99.90
22442;DHT22;11388;54.456;9.752;2023-04-24T00:20:04;14.00;99.90
22442;DHT22;11388;54.456;9.752;2023-04-24T00:22:32;14.00;99.90
22442;DHT22;11388;54.456;9.752;2023-04-24T00:24:58;14.00;99.90
22442;DHT22;11388;54.456;9.752;2023-04-24T00:27:24;14.10;99.90
22442;DHT22;11388;54.456;9.752;2023-04-24T00:29:53;14.00;99.90
22442;DHT22;11388;54.456;9.752;2023-04-24T00:32:19;14.00;99.90
22442;DHT22;11388;54.456;9.752;2023-04-24T00:34:45;14.00;99.90
22442;DHT22;11388;54.456;9.752;2023-04-24T00:37:10;14.00;99.90
22442;DHT22;11388;54.456;9.752;2023-04-24T00:39:37;14.00;99.90
22442;DHT22;11388;54.456;9.752;2023-04-24T00:42:02;14.00;99.90
22442;DHT22;11388;54.456;9.752;2023-04-24T00:44:28;13.90;99.90
22442;DHT22;11388;54.456;9.752;2023-04-24T00:46:55;13.90;99.90
22442;DHT22;11388;54.456;9.752;2023-04-24T00:49:21;13.90;99.90
22442;DHT22;11388;54.456;9.752;2023-04-24T00:51:49;14.00;99.90
22442;DHT22;11388;54.456;9.752;2023-04-24T00:54:17;13.90;99.90
22442;DHT22;11388;54.456;9.752;2023-04-24T00:56:44;13.90;99.90
22442;DHT22;11388;54.456;9.752;2023-04-24T00:59:12;13.90;99.90
22442;DHT22;11388;54.456;9.752;2023-04-24T01:01:39;13.90;99.90
22442;DHT22;11388;54.456;9.752;2023-04-24T01:04:07;13.90;99.90
22442;DHT22;11388;54.456;9.752;2023-04-24T01:06:40;13.80;99.90
22442;DHT22;11388;54.456;9.752;2023-04-24T01:09:07;13.80;99.90
22442;DHT22;11388;54.456;9.752;2023-04-24T01:11:37;13.80;99.90
22442;DHT22;11388;54.456;9.752;2023-04-24T01:14:02;13.80;99.90
22442;DHT22;11388;54.456;9.752;2023-04-24T01:16:28;13.70;99.90
22442;DHT22;11388;54.456;9.752;2023-04-24T01:18:54;13.70;99.90
22442;DHT22;11388;54.456;9.752;2023-04-24T01:21:21;13.60;99.90
22442;DHT22;11388;54.456;9.752;2023-04-24T01:23:47;13.60;99.90
22442;DHT22;11388;54.456;9.752;2023-04-24T01:26:14;13.50;99.90
22442;DHT22;11388;54.456;9.752;2023-04-24T01:28:40;13.50;99.90
22442;DHT22;11388;54.456;9.752;2023-04-24T01:31:06;13.50;99.90
22442;DHT22;11388;54.456;9.752;2023-04-24T01:33:32;13.60;99.90
22442;DHT22;11388;54.456;9.752;2023-04-24T01:35:58;13.60;99.90
22442;DHT22;11388;54.456;9.752;2023-04-24T01:38:24;13.60;99.90
22442;DHT22;11388;54.456;9.752;2023-04-24T01:40:51;13.50;99.90
22442;DHT22;11388;54.456;9.752;2023-04-24T01:43:17;13.50;99.90
22442;DHT22;11388;54.456;9.752;2023-04-24T01:45:43;13.50;99.90
22442;DHT22;11388;54.456;9.752;2023-04-24T01:48:09;13.50;99.90
22442;DHT22;11388;54.456;9.752;2023-04-24T01:50:35;13.60;99.90
22442;DHT22;11388;54.456;9.752;2023-04-24T01:53:01;13.60;99.90
22442;DHT22;11388;54.456;9.752;2023-04-24T01:55:27;13.50;99.90
22442;DHT22;11388;54.456;9.752;2023-04-24T01:57:55;13.50;99.90
22442;DHT22;11388;54.456;9.752;2023-04-24T02:00:21;13.50;99.90
22442;DHT22;11388;54.456;9.752;2023-04-24T02:05:35;13.50;99.90
22442;DHT22;11388;54.456;9.752;2023-04-24T02:08:01;13.50;99.90
22442;DHT22;11388;54.456;9.752;2023-04-24T02:10:26;13.40;99.90
22442;DHT22;11388;54.456;9.752;2023-04-24T02:12:52;13.40;99.90
22442;DHT22;11388;54.456;9.752;2023-04-24T02:15:18;13.40;99.90
22442;DHT22;11388;54.456;9.752;2023-04-24T02:17:43;13.30;99.90
22442;DHT22;11388;54.456;9.752;2023-04-24T02:20:09;13.30;99.90
22442;DHT22;11388;54.456;9.752;2023-04-24T02:22:35;13.20;99.90
22442;DHT22;11388;54.456;9.752;2023-04-24T02:25:01;13.10;99.90
22442;DHT22;11388;54.456;9.752;2023-04-24T02:27:27;13.00;99.90
22442;DHT22;11388;54.456;9.752;2023-04-24T02:29:52;13.00;99.90
22442;DHT22;11388;54.456;9.752;2023-04-24T02:32:18;13.10;99.90
22442;DHT22;11388;54.456;9.752;2023-04-24T02:34:44;13.10;99.90
22442;DHT22;11388;54.456;9.752;2023-04-24T02:37:09;13.20;99.90
22442;DHT22;11388;54.456;9.752;2023-04-24T02:39:35;13.10;99.90
22442;DHT22;11388;54.456;9.752;2023-04-24T02:42:01;13.00;99.90
22442;DHT22;11388;54.456;9.752;2023-04-24T02:44:27;13.00;99.90
22442;DHT22;11388;54.456;9.752;2023-04-24T02:46:52;13.00;99.90
22442;DHT22;11388;54.456;9.752;2023-04-24T02:49:18;13.00;99.90
22442;DHT22;11388;54.456;9.752;2023-04-24T02:51:44;13.00;99.90
22442;DHT22;11388;54.456;9.752;2023-04-24T02:54:09;12.90;99.90
22442;DHT22;11388;54.456;9.752;2023-04-24T02:56:35;12.80;99.90
22442;DHT22;11388;54.456;9.752;2023-04-24T02:59:01;12.80;99.90
22442;DHT22;11388;54.456;9.752;2023-04-24T03:01:27;12.90;99.90
22442;DHT22;11388;54.456;9.752;2023-04-24T03:03:52;12.90;99.90
22442;DHT22;11388;54.456;9.752;2023-04-24T03:06:18;12.80;99.90
22442;DHT22;11388;54.456;9.752;2023-04-24T03:08:43;12.80;99.90
22442;DHT22;11388;54.456;9.752;2023-04-24T03:11:09;12.80;99.90
22442;DHT22;11388;54.456;9.752;2023-04-24T03:13:35;12.80;99.90
22442;DHT22;11388;54.456;9.752;2023-04-24T03:16:01;12.90;99.90
22442;DHT22;11388;54.456;9.752;2023-04-24T03:18:26;12.90;99.90
22442;DHT22;11388;54.456;9.752;2023-04-24T03:20:52;13.00;99.90
22442;DHT22;11388;54.456;9.752;2023-04-24T03:23:18;12.90;99.90
22442;DHT22;11388;54.456;9.752;2023-04-24T03:25:43;12.90;99.90
22442;DHT22;11388;54.456;9.752;2023-04-24T03:28:09;12.90;99.90
22442;DHT22;11388;54.456;9.752;2023-04-24T03:30:35;12.90;99.90
22442;DHT22;11388;54.456;9.752;2023-04-24T03:33:00;12.90;99.90
22442;DHT22;11388;54.456;9.752;2023-04-24T03:35:26;12.90;99.90
22442;DHT22;11388;54.456;9.752;2023-04-24T03:37:52;13.00;99.90
22442;DHT22;11388;54.456;9.752;2023-04-24T03:40:18;12.90;99.90
22442;DHT22;11388;54.456;9.752;2023-04-24T03:42:43;12.90;99.90
22442;DHT22;11388;54.456;9.752;2023-04-24T03:45:09;12.90;99.90
22442;DHT22;11388;54.456;9.752;2023-04-24T03:47:35;12.80;99.90
22442;DHT22;11388;54.456;9.752;2023-04-24T03:50:01;12.80;99.90
22442;DHT22;11388;54.456;9.752;2023-04-24T03:52:27;12.60;99.90
22442;DHT22;11388;54.456;9.752;2023-04-24T03:54:52;12.60;99.90
22442;DHT22;11388;54.456;9.752;2023-04-24T03:57:18;12.60;99.90
22442;DHT22;11388;54.456;9.752;2023-04-24T03:59:44;12.60;99.90
22442;DHT22;11388;54.456;9.752;2023-04-24T04:02:10;12.50;99.90
22442;DHT22;11388;54.456;9.752;2023-04-24T04:04:35;12.40;99.90
22442;DHT22;11388;54.456;9.752;2023-04-24T04:07:01;12.40;99.90
22442;DHT22;11388;54.456;9.752;2023-04-24T04:09:28;12.40;99.90
22442;DHT22;11388;54.456;9.752;2023-04-24T04:11:57;12.30;99.90
22442;DHT22;11388;54.456;9.752;2023-04-24T04:14:22;12.30;99.90
22442;DHT22;11388;54.456;9.752;2023-04-24T04:16:49;12.40;99.90
22442;DHT22;11388;54.456;9.752;2023-04-24T04:19:14;12.40;99.90
22442;DHT22;11388;54.456;9.752;2023-04-24T04:21:40;12.40;99.90
22442;DHT22;11388;54.456;9.752;2023-04-24T04:24:06;12.40;99.90
22442;DHT22;11388;54.456;9.752;2023-04-24T04:26:32;12.30;99.90
22442;DHT22;11388;54.456;9.752;2023-04-24T04:28:59;12.30;99.90
22442;DHT22;11388;54.456;9.752;2023-04-24T04:31:26;12.30;99.90
22442;DHT22;11388;54.456;9.752;2023-04-24T04:33:51;12.40;99.90
22442;DHT22;11388;54.456;9.752;2023-04-24T04:36:17;12.40;99.90
22442;DHT22;11388;54.456;9.752;2023-04-24T04:38:43;12.40;99.90
22442;DHT22;11388;54.456;9.752;2023-04-24T04:41:10;12.40;99.90
22442;DHT22;11388;54.456;9.752;2023-04-24T04:43:36;12.40;99.90
22442;DHT22;11388;54.456;9.752;2023-04-24T04:46:02;12.50;99.90
22442;DHT22;11388;54.456;9.752;2023-04-24T04:48:28;12.50;99.90
22442;DHT22;11388;54.456;9.752;2023-04-24T04:50:57;12.60;99.90
22442;DHT22;11388;54.456;9.752;2023-04-24T04:53:22;12.60;99.90
22442;DHT22;11388;54.456;9.752;2023-04-24T04:55:48;12.50;99.90
22442;DHT22;11388;54.456;9.752;2023-04-24T04:58:14;12.50;99.90
22442;DHT22;11388;54.456;9.752;2023-04-24T05:00:39;12.60;99.90
22442;DHT22;11388;54.456;9.752;2023-04-24T05:03:07;12.70;99.90
22442;DHT22;11388;54.456;9.752;2023-04-24T05:05:32;12.70;99.90
22442;DHT22;11388;54.456;9.752;2023-04-24T05:07:58;12.70;99.90
22442;DHT22;11388;54.456;9.752;2023-04-24T05:10:24;12.80;99.90
22442;DHT22;11388;54.456;9.752;2023-04-24T05:12:50;12.80;99.90
22442;DHT22;11388;54.456;9.752;2023-04-24T05:15:15;12.70;99.90
22442;DHT22;11388;54.456;9.752;2023-04-24T05:17:41;12.70;99.90
22442;DHT22;11388;54.456;9.752;2023-04-24T05:20:07;12.70;99.90
22442;DHT22;11388;54.456;9.752;2023-04-24T05:22:33;12.80;99.90
22442;DHT22;11388;54.456;9.752;2023-04-24T05:24:59;12.80;99.90
22442;DHT22;11388;54.456;9.752;2023-04-24T05:27:24;12.70;99.90
22442;DHT22;11388;54.456;9.752;2023-04-24T05:29:50;12.70;99.90
22442;DHT22;11388;54.456;9.752;2023-04-24T05:32:16;12.70;99.90
22442;DHT22;11388;54.456;9.752;2023-04-24T05:34:42;12.70;99.90
22442;DHT22;11388;54.456;9.752;2023-04-24T05:37:07;12.70;99.90
22442;DHT22;11388;54.456;9.752;2023-04-24T05:39:35;12.70;99.90
22442;DHT22;11388;54.456;9.752;2023-04-24T05:42:02;12.70;99.90
22442;DHT22;11388;54.456;9.752;2023-04-24T05:44:29;12.70;99.90
22442;DHT22;11388;54.456;9.752;2023-04-24T05:46:55;12.80;99.90
22442;DHT22;11388;54.456;9.752;2023-04-24T05:49:22;12.80;99.90
22442;DHT22;11388;54.456;9.752;2023-04-24T05:51:48;12.70;99.90
22442;DHT22;11388;54.456;9.752;2023-04-24T05:54:13;12.60;99.90
22442;DHT22;11388;54.456;9.752;2023-04-24T05:56:40;12.60;99.90
22442;DHT22;11388;54.456;9.752;2023-04-24T05:59:06;12.50;99.90
22442;DHT22;11388;54.456;9.752;2023-04-24T06:01:32;12.60;99.90
22442;DHT22;11388;54.456;9.752;2023-04-24T06:03:58;12.60;99.90
22442;DHT22;11388;54.456;9.752;2023-04-24T06:06:24;12.60;99.90
22442;DHT22;11388;54.456;9.752;2023-04-24T06:08:51;12.60;99.90
22442;DHT22;11388;54.456;9.752;2023-04-24T06:11:17;12.60;99.90
22442;DHT22;11388;54.456;9.752;2023-04-24T06:13:42;12.60;99.90
22442;DHT22;11388;54.456;9.752;2023-04-24T06:16:08;12.50;99.90
22442;DHT22;11388;54.456;9.752;2023-04-24T06:18:34;12.60;99.90
22442;DHT22;11388;54.456;9.752;2023-04-24T06:21:00;12.50;99.90
22442;DHT22;11388;54.456;9.752;2023-04-24T06:23:26;12.60;99.90
22442;DHT22;11388;54.456;9.752;2023-04-24T06:25:51;12.70;99.90
22442;DHT22;11388;54.456;9.752;2023-04-24T06:28:17;12.70;99.90
22442;DHT22;11388;54.456;9.752;2023-04-24T06:30:43;12.80;99.90
22442;DHT22;11388;54.456;9.752;2023-04-24T06:33:09;12.80;99.90
22442;DHT22;11388;54.456;9.752;2023-04-24T06:35:36;12.90;99.90
22442;DHT22;11388;54.456;9.752;2023-04-24T06:38:03;13.00;99.90
22442;DHT22;11388;54.456;9.752;2023-04-24T06:40:29;12.80;99.90
22442;DHT22;11388;54.456;9.752;2023-04-24T06:42:55;12.80;99.90
22442;DHT22;11388;54.456;9.752;2023-04-24T06:45:20;12.70;99.90
22442;DHT22;11388;54.456;9.752;2023-04-24T06:47:46;12.50;99.90
22442;DHT22;11388;54.456;9.752;2023-04-24T06:50:12;12.60;99.90
22442;DHT22;11388;54.456;9.752;2023-04-24T06:52:38;12.70;99.90
22442;DHT22;11388;54.456;9.752;2023-04-24T06:55:04;12.80;99.90
22442;DHT22;11388;54.456;9.752;2023-04-24T06:57:30;12.70;99.90
22442;DHT22;11388;54.456;9.752;2023-04-24T06:59:56;12.70;99.90
22442;DHT22;11388;54.456;9.752;2023-04-24T07:02:22;12.50;99.90
22442;DHT22;11388;54.456;9.752;2023-04-24T07:04:48;12.60;99.90
22442;DHT22;11388;54.456;9.752;2023-04-24T07:07:14;12.60;99.90
22442;DHT22;11388;54.456;9.752;2023-04-24T07:09:40;12.60;99.90
22442;DHT22;11388;54.456;9.752;2023-04-24T07:12:09;12.70;99.90
22442;DHT22;11388;54.456;9.752;2023-04-24T07:14:39;12.80;99.90
22442;DHT22;11388;54.456;9.752;2023-04-24T07:17:05;13.00;99.90
22442;DHT22;11388;54.456;9.752;2023-04-24T07:19:33;13.10;99.90
22442;DHT22;11388;54.456;9.752;2023-04-24T07:21:59;13.10;99.90
22442;DHT22;11388;54.456;9.752;2023-04-24T07:24:25;13.00;99.90
22442;DHT22;11388;54.456;9.752;2023-04-24T07:26:52;13.00;99.90
22442;DHT22;11388;54.456;9.752;2023-04-24T07:29:18;13.00;99.90
22442;DHT22;11388;54.456;9.752;2023-04-24T07:31:44;12.90;99.90
22442;DHT22;11388;54.456;9.752;2023-04-24T07:34:09;13.00;99.90
22442;DHT22;11388;54.456;9.752;2023-04-24T07:36:36;12.80;99.90
22442;DHT22;11388;54.456;9.752;2023-04-24T07:39:04;12.80;99.90
22442;DHT22;11388;54.456;9.752;2023-04-24T07:41:29;12.90;99.90
22442;DHT22;11388;54.456;9.752;2023-04-24T07:43:55;12.80;99.90
22442;DHT22;11388;54.456;9.752;2023-04-24T07:46:21;12.70;99.90
22442;DHT22;11388;54.456;9.752;2023-04-24T07:48:47;12.70;99.90
22442;DHT22;11388;54.456;9.752;2023-04-24T07:51:14;12.80;99.90
22442;DHT22;11388;54.456;9.752;2023-04-24T07:53:40;13.00;99.90
22442;DHT22;11388;54.456;9.752;2023-04-24T07:56:06;13.20;99.90
22442;DHT22;11388;54.456;9.752;2023-04-24T07:58:32;13.30;99.90
22442;DHT22;11388;54.456;9.752;2023-04-24T08:00:58;13.30;99.90
22442;DHT22;11388;54.456;9.752;2023-04-24T08:03:24;13.30;99.90
22442;DHT22;11388;54.456;9.752;2023-04-24T08:05:50;13.30;99.90
22442;DHT22;11388;54.456;9.752;2023-04-24T08:08:19;13.40;99.90
22442;DHT22;11388;54.456;9.752;2023-04-24T08:10:45;13.30;99.90
22442;DHT22;11388;54.456;9.752;2023-04-24T08:13:11;13.20;99.90
22442;DHT22;11388;54.456;9.752;2023-04-24T08:15:37;13.30;99.90
22442;DHT22;11388;54.456;9.752;2023-04-24T08:18:02;13.20;99.90
22442;DHT22;11388;54.456;9.752;2023-04-24T08:20:28;13.20;99.90
22442;DHT22;11388;54.456;9.752;2023-04-24T08:22:54;13.20;99.90
22442;DHT22;11388;54.456;9.752;2023-04-24T08:25:20;13.30;99.90
22442;DHT22;11388;54.456;9.752;2023-04-24T08:27:48;13.40;99.90
22442;DHT22;11388;54.456;9.752;2023-04-24T08:30:14;13.40;99.90
22442;DHT22;11388;54.456;9.752;2023-04-24T08:32:40;13.50;99.90
22442;DHT22;11388;54.456;9.752;2023-04-24T08:35:06;13.40;99.90
22442;DHT22;11388;54.456;9.752;2023-04-24T08:37:34;13.40;99.90
22442;DHT22;11388;54.456;9.752;2023-04-24T08:40:00;13.50;99.90
22442;DHT22;11388;54.456;9.752;2023-04-24T08:42:28;13.60;99.90
22442;DHT22;11388;54.456;9.752;2023-04-24T08:44:54;13.70;99.90
22442;DHT22;11388;54.456;9.752;2023-04-24T08:47:20;13.60;99.90
22442;DHT22;11388;54.456;9.752;2023-04-24T08:49:48;13.40;99.90
22442;DHT22;11388;54.456;9.752;2023-04-24T08:52:15;13.40;99.90
22442;DHT22;11388;54.456;9.752;2023-04-24T08:54:42;13.50;99.90
22442;DHT22;11388;54.456;9.752;2023-04-24T08:57:09;13.40;99.90
22442;DHT22;11388;54.456;9.752;2023-04-24T08:59:38;13.20;99.90
22442;DHT22;11388;54.456;9.752;2023-04-24T09:02:04;13.10;99.90
22442;DHT22;11388;54.456;9.752;2023-04-24T09:04:30;13.00;99.90
22442;DHT22;11388;54.456;9.752;2023-04-24T09:06:58;13.20;99.90
22442;DHT22;11388;54.456;9.752;2023-04-24T09:09:25;13.30;99.90
22442;DHT22;11388;54.456;9.752;2023-04-24T09:11:52;13.30;99.90
22442;DHT22;11388;54.456;9.752;2023-04-24T09:14:20;13.40;99.90
22442;DHT22;11388;54.456;9.752;2023-04-24T09:16:46;13.60;99.90
22442;DHT22;11388;54.456;9.752;2023-04-24T09:19:12;13.50;99.90
22442;DHT22;11388;54.456;9.752;2023-04-24T09:21:38;13.50;99.90
22442;DHT22;11388;54.456;9.752;2023-04-24T09:24:20;13.50;99.90
22442;DHT22;11388;54.456;9.752;2023-04-24T09:26:48;13.50;99.90
22442;DHT22;11388;54.456;9.752;2023-04-24T09:29:18;13.50;99.90
22442;DHT22;11388;54.456;9.752;2023-04-24T09:31:45;13.50;99.90
22442;DHT22;11388;54.456;9.752;2023-04-24T09:34:11;13.30;99.90
22442;DHT22;11388;54.456;9.752;2023-04-24T09:36:41;13.40;99.90
22442;DHT22;11388;54.456;9.752;2023-04-24T09:39:10;13.50;99.90
22442;DHT22;11388;54.456;9.752;2023-04-24T09:41:49;13.50;99.90
22442;DHT22;11388;54.456;9.752;2023-04-24T09:46:50;13.40;99.90
22442;DHT22;11388;54.456;9.752;2023-04-24T09:49:20;13.50;99.90
22442;DHT22;11388;54.456;9.752;2023-04-24T09:51:45;13.60;99.90
22442;DHT22;11388;54.456;9.752;2023-04-24T09:54:16;13.70;99.90
22442;DHT22;11388;54.456;9.752;2023-04-24T09:56:44;13.30;99.90
22442;DHT22;11388;54.456;9.752;2023-04-24T09:59:10;13.30;99.90
22442;DHT22;11388;54.456;9.752;2023-04-24T10:01:36;13.10;99.90
22442;DHT22;11388;54.456;9.752;2023-04-24T10:04:04;12.90;99.90
22442;DHT22;11388;54.456;9.752;2023-04-24T10:06:34;12.80;99.90
22442;DHT22;11388;54.456;9.752;2023-04-24T10:09:01;12.70;99.90
22442;DHT22;11388;54.456;9.752;2023-04-24T10:11:30;12.70;99.90
22442;DHT22;11388;54.456;9.752;2023-04-24T10:13:56;12.80;99.90
22442;DHT22;11388;54.456;9.752;2023-04-24T10:16:23;12.70;99.90
22442;DHT22;11388;54.456;9.752;2023-04-24T10:18:49;12.80;99.90
22442;DHT22;11388;54.456;9.752;2023-04-24T10:21:19;12.60;99.90
22442;DHT22;11388;54.456;9.752;2023-04-24T10:23:49;12.60;99.90
22442;DHT22;11388;54.456;9.752;2023-04-24T10:26:17;12.60;99.90
22442;DHT22;11388;54.456;9.752;2023-04-24T10:28:47;12.40;99.90
22442;DHT22;11388;54.456;9.752;2023-04-24T10:31:13;12.60;99.90
22442;DHT22;11388;54.456;9.752;2023-04-24T10:33:43;12.60;99.90
22442;DHT22;11388;54.456;9.752;2023-04-24T10:36:13;12.70;99.90
22442;DHT22;11388;54.456;9.752;2023-04-24T10:38:41;12.70;99.90
22442;DHT22;11388;54.456;9.752;2023-04-24T10:41:12;12.60;99.90
22442;DHT22;11388;54.456;9.752;2023-04-24T10:46:54;12.80;99.90
22442;DHT22;11388;54.456;9.752;2023-04-24T10:49:31;12.80;99.90
22442;DHT22;11388;54.456;9.752;2023-04-24T10:52:01;12.90;99.90
22442;DHT22;11388;54.456;9.752;2023-04-24T10:59:49;12.90;99.90
22442;DHT22;11388;54.456;9.752;2023-04-24T11:02:16;13.10;99.90
22442;DHT22;11388;54.456;9.752;2023-04-24T11:04:43;13.10;99.90
22442;DHT22;11388;54.456;9.752;2023-04-24T11:07:09;13.10;99.90
22442;DHT22;11388;54.456;9.752;2023-04-24T11:09:36;13.30;99.90
22442;DHT22;11388;54.456;9.752;2023-04-24T11:12:07;13.30;99.90
22442;DHT22;11388;54.456;9.752;2023-04-24T11:17:35;13.40;99.90
22442;DHT22;11388;54.456;9.752;2023-04-24T11:20:08;13.40;99.90
22442;DHT22;11388;54.456;9.752;2023-04-24T11:22:35;13.20;99.90
22442;DHT22;11388;54.456;9.752;2023-04-24T11:25:02;13.00;99.90
22442;DHT22;11388;54.456;9.752;2023-04-24T11:27:39;13.10;99.90
22442;DHT22;11388;54.456;9.752;2023-04-24T11:30:05;13.00;99.90
22442;DHT22;11388;54.456;9.752;2023-04-24T11:32:39;12.90;99.90
22442;DHT22;11388;54.456;9.752;2023-04-24T11:35:21;13.00;99.90
22442;DHT22;11388;54.456;9.752;2023-04-24T11:37:51;13.10;99.90
22442;DHT22;11388;54.456;9.752;2023-04-24T11:40:19;13.20;99.90
22442;DHT22;11388;54.456;9.752;2023-04-24T11:42:47;13.30;99.90
22442;DHT22;11388;54.456;9.752;2023-04-24T11:45:22;13.40;99.90
22442;DHT22;11388;54.456;9.752;2023-04-24T11:47:48;13.40;99.90
22442;DHT22;11388;54.456;9.752;2023-04-24T11:50:16;13.50;99.90
22442;DHT22;11388;54.456;9.752;2023-04-24T11:52:43;13.50;99.90
22442;DHT22;11388;54.456;9.752;2023-04-24T11:57:55;13.50;99.90
22442;DHT22;11388;54.456;9.752;2023-04-24T12:00:30;13.60;99.90
22442;DHT22;11388;54.456;9.752;2023-04-24T12:03:08;13.60;99.90
22442;DHT22;11388;54.456;9.752;2023-04-24T12:05:35;13.80;99.90
22442;DHT22;11388;54.456;9.752;2023-04-24T12:08:01;13.80;99.90
22442;DHT22;11388;54.456;9.752;2023-04-24T12:10:28;13.80;99.90
22442;DHT22;11388;54.456;9.752;2023-04-24T12:12:56;13.50;99.90
22442;DHT22;11388;54.456;9.752;2023-04-24T12:15:23;13.50;99.90
22442;DHT22;11388;54.456;9.752;2023-04-24T12:17:51;13.50;99.90
22442;DHT22;11388;54.456;9.752;2023-04-24T12:20:17;13.40;99.90
22442;DHT22;11388;54.456;9.752;2023-04-24T12:26:11;13.30;99.90
22442;DHT22;11388;54.456;9.752;2023-04-24T12:28:37;13.30;99.90
22442;DHT22;11388;54.456;9.752;2023-04-24T12:31:04;13.40;99.90
22442;DHT22;11388;54.456;9.752;2023-04-24T12:33:35;13.50;99.90
22442;DHT22;11388;54.456;9.752;2023-04-24T12:36:01;13.60;99.90
22442;DHT22;11388;54.456;9.752;2023-04-24T12:38:28;13.70;99.90
22442;DHT22;11388;54.456;9.752;2023-04-24T12:41:03;13.70;99.90
22442;DHT22;11388;54.456;9.752;2023-04-24T12:43:29;13.80;99.90
22442;DHT22;11388;54.456;9.752;2023-04-24T12:45:55;13.90;99.90
22442;DHT22;11388;54.456;9.752;2023-04-24T12:48:21;14.00;99.90
22442;DHT22;11388;54.456;9.752;2023-04-24T12:50:47;13.90;99.90
22442;DHT22;11388;54.456;9.752;2023-04-24T12:53:13;13.80;99.90
22442;DHT22;11388;54.456;9.752;2023-04-24T12:55:39;13.90;99.90
22442;DHT22;11388;54.456;9.752;2023-04-24T12:58:05;13.90;99.90
22442;DHT22;11388;54.456;9.752;2023-04-24T13:00:31;13.90;99.90
22442;DHT22;11388;54.456;9.752;2023-04-24T13:02:57;13.90;99.90
22442;DHT22;11388;54.456;9.752;2023-04-24T13:05:23;13.90;99.90
22442;DHT22;11388;54.456;9.752;2023-04-24T13:07:48;13.90;99.90
22442;DHT22;11388;54.456;9.752;2023-04-24T13:10:14;13.80;99.90
22442;DHT22;11388;54.456;9.752;2023-04-24T13:12:42;13.70;99.90
22442;DHT22;11388;54.456;9.752;2023-04-24T13:15:10;13.60;99.90
22442;DHT22;11388;54.456;9.752;2023-04-24T13:17:36;13.60;99.90
22442;DHT22;11388;54.456;9.752;2023-04-24T13:20:02;13.60;99.90
22442;DHT22;11388;54.456;9.752;2023-04-24T13:22:28;13.50;99.90
22442;DHT22;11388;54.456;9.752;2023-04-24T13:24:54;13.40;99.90
22442;DHT22;11388;54.456;9.752;2023-04-24T13:27:20;13.20;99.90
22442;DHT22;11388;54.456;9.752;2023-04-24T13:29:45;13.20;99.90
22442;DHT22;11388;54.456;9.752;2023-04-24T13:32:12;13.30;99.90
22442;DHT22;11388;54.456;9.752;2023-04-24T13:34:38;13.10;99.90
22442;DHT22;11388;54.456;9.752;2023-04-24T13:37:04;13.20;99.90
22442;DHT22;11388;54.456;9.752;2023-04-24T13:39:30;13.20;99.90
22442;DHT22;11388;54.456;9.752;2023-04-24T13:41:57;13.20;99.90
22442;DHT22;11388;54.456;9.752;2023-04-24T13:44:23;13.10;99.90
22442;DHT22;11388;54.456;9.752;2023-04-24T13:46:52;12.80;99.90
22442;DHT22;11388;54.456;9.752;2023-04-24T13:49:19;12.70;99.90
22442;DHT22;11388;54.456;9.752;2023-04-24T13:51:46;12.70;99.90
22442;DHT22;11388;54.456;9.752;2023-04-24T14:08:13;12.90;99.90
22442;DHT22;11388;54.456;9.752;2023-04-24T14:10:59;12.70;99.90
22442;DHT22;11388;54.456;9.752;2023-04-24T14:13:25;12.70;99.90
22442;DHT22;11388;54.456;9.752;2023-04-24T14:15:51;12.60;99.90
22442;DHT22;11388;54.456;9.752;2023-04-24T14:18:18;12.60;99.90
22442;DHT22;11388;54.456;9.752;2023-04-24T14:20:44;12.60;99.90
22442;DHT22;11388;54.456;9.752;2023-04-24T14:23:10;12.60;99.90
22442;DHT22;11388;54.456;9.752;2023-04-24T14:25:36;12.70;99.90
22442;DHT22;11388;54.456;9.752;2023-04-24T14:28:01;12.60;99.90
22442;DHT22;11388;54.456;9.752;2023-04-24T14:30:27;12.50;99.90
22442;DHT22;11388;54.456;9.752;2023-04-24T14:32:52;12.50;99.90
22442;DHT22;11388;54.456;9.752;2023-04-24T14:35:18;12.70;99.90
22442;DHT22;11388;54.456;9.752;2023-04-24T14:37:44;12.70;99.90
22442;DHT22;11388;54.456;9.752;2023-04-24T14:40:10;12.70;99.90
22442;DHT22;11388;54.456;9.752;2023-04-24T14:42:39;12.60;99.90
22442;DHT22;11388;54.456;9.752;2023-04-24T14:45:06;12.50;99.90
22442;DHT22;11388;54.456;9.752;2023-04-24T14:47:33;12.20;99.90
22442;DHT22;11388;54.456;9.752;2023-04-24T14:49:58;12.20;99.90
22442;DHT22;11388;54.456;9.752;2023-04-24T14:52:24;12.20;99.90
22442;DHT22;11388;54.456;9.752;2023-04-24T14:54:50;12.20;99.90
22442;DHT22;11388;54.456;9.752;2023-04-24T14:57:16;12.20;99.90
22442;DHT22;11388;54.456;9.752;2023-04-24T14:59:41;12.10;99.90
22442;DHT22;11388;54.456;9.752;2023-04-24T15:02:08;12.00;99.90
22442;DHT22;11388;54.456;9.752;2023-04-24T15:04:34;12.00;99.90
22442;DHT22;11388;54.456;9.752;2023-04-24T15:07:00;12.00;99.90
22442;DHT22;11388;54.456;9.752;2023-04-24T15:09:26;12.00;99.90
22442;DHT22;11388;54.456;9.752;2023-04-24T15:11:52;12.10;99.90
22442;DHT22;11388;54.456;9.752;2023-04-24T15:14:18;12.10;99.90
22442;DHT22;11388;54.456;9.752;2023-04-24T15:16:44;12.10;99.90
22442;DHT22;11388;54.456;9.752;2023-04-24T15:19:10;12.00;99.90
22442;DHT22;11388;54.456;9.752;2023-04-24T15:21:36;12.10;99.90
22442;DHT22;11388;54.456;9.752;2023-04-24T15:24:03;12.20;99.90
22442;DHT22;11388;54.456;9.752;2023-04-24T15:26:29;12.10;99.90
22442;DHT22;11388;54.456;9.752;2023-04-24T15:28:55;12.10;99.90
22442;DHT22;11388;54.456;9.752;2023-04-24T15:31:21;12.10;99.90
22442;DHT22;11388;54.456;9.752;2023-04-24T15:33:51;12.00;99.90
22442;DHT22;11388;54.456;9.752;2023-04-24T15:36:17;11.90;99.90
22442;DHT22;11388;54.456;9.752;2023-04-24T15:38:44;11.80;99.90
22442;DHT22;11388;54.456;9.752;2023-04-24T15:41:10;11.80;99.90
22442;DHT22;11388;54.456;9.752;2023-04-24T15:43:36;11.70;99.90
22442;DHT22;11388;54.456;9.752;2023-04-24T15:46:04;11.70;99.90
22442;DHT22;11388;54.456;9.752;2023-04-24T15:48:30;11.60;99.90
22442;DHT22;11388;54.456;9.752;2023-04-24T15:50:56;11.40;99.90
22442;DHT22;11388;54.456;9.752;2023-04-24T15:53:22;11.30;99.90
22442;DHT22;11388;54.456;9.752;2023-04-24T15:55:52;11.20;99.90
22442;DHT22;11388;54.456;9.752;2023-04-24T15:58:19;10.90;99.90
22442;DHT22;11388;54.456;9.752;2023-04-24T16:00:46;10.80;99.90
22442;DHT22;11388;54.456;9.752;2023-04-24T16:03:14;10.60;99.90